createdAt,value
2022-08-01T00:01:31.749Z,23.50
2022-08-01T00:03:59.749Z,23.50
2022-08-01T00:06:27.940Z,23.40
2022-08-01T00:08:56.321Z,23.30
2022-08-01T00:11:24.264Z,23.30
2022-08-01T00:13:52.404Z,23.20
2022-08-01T00:16:20.478Z,23.20
2022-08-01T00:18:49.813Z,23.10
2022-08-01T00:21:17.959Z,23.10
2022-08-01T00:23:46.916Z,23.00
2022-08-01T00:26:15.027Z,23.00
2022-08-01T00:28:43.495Z,22.90
2022-08-01T00:31:11.504Z,22.90
2022-08-01T00:33:39.547Z,22.90
2022-08-01T00:36:09.784Z,22.90
2022-08-01T00:38:37.743Z,22.80
2022-08-01T00:41:05.706Z,22.80
2022-08-01T00:43:33.731Z,22.70
2022-08-01T00:46:01.693Z,22.70
2022-08-01T00:48:29.641Z,22.70
2022-08-01T00:50:57.610Z,22.60
2022-08-01T00:53:27.707Z,22.60
2022-08-01T00:56:16.194Z,22.50
2022-08-01T00:58:44.671Z,22.50
2022-08-01T01:01:14.376Z,22.40
2022-08-01T01:03:58.713Z,22.40
2022-08-01T01:06:42.130Z,22.30
2022-08-01T01:09:26.460Z,22.30
2022-08-01T01:12:03.926Z,22.30
2022-08-01T01:14:38.865Z,22.20
2022-08-01T01:17:09.781Z,22.40
2022-08-01T01:19:43.663Z,22.10
2022-08-01T01:22:38.359Z,22.10
2022-08-01T01:25:34.796Z,22.00
2022-08-01T01:28:12.281Z,22.00
2022-08-01T01:30:45.051Z,21.90
2022-08-01T01:33:15.038Z,21.80
2022-08-01T01:35:46.956Z,21.70
2022-08-01T01:38:20.661Z,21.60
2022-08-01T01:40:50.022Z,21.60
2022-08-01T01:43:19.569Z,21.50
2022-08-01T01:45:52.918Z,21.50
2022-08-01T01:48:22.877Z,21.40
2022-08-01T01:50:52.791Z,21.40
2022-08-01T01:53:24.539Z,21.30
2022-08-01T01:55:55.429Z,21.30
2022-08-01T01:58:24.823Z,21.20
2022-08-01T02:00:57.212Z,21.20
2022-08-01T02:03:28.442Z,21.20
2022-08-01T02:05:57.946Z,21.10
2022-08-01T02:08:26.426Z,21.10
2022-08-01T02:11:14.980Z,21.00
2022-08-01T02:13:44.267Z,21.00
2022-08-01T02:16:15.009Z,20.90
2022-08-01T02:18:43.609Z,20.80
2022-08-01T02:21:15.814Z,20.70
2022-08-01T02:23:45.883Z,20.70
2022-08-01T02:26:17.958Z,20.70
2022-08-01T02:28:49.636Z,20.70
2022-08-01T02:31:22.305Z,20.70
2022-08-01T02:33:57.751Z,20.70
2022-08-01T02:36:33.433Z,20.70
2022-08-01T02:39:23.284Z,20.80
2022-08-01T02:41:56.951Z,20.80
2022-08-01T02:44:26.918Z,20.90
2022-08-01T02:47:03.107Z,20.90
2022-08-01T02:49:34.551Z,20.90
2022-08-01T02:52:05.906Z,20.90
2022-08-01T02:54:35.913Z,20.80
2022-08-01T02:57:05.456Z,20.80
2022-08-01T02:59:38.257Z,20.70
2022-08-01T03:02:11.859Z,20.70
2022-08-01T03:04:42.664Z,20.70
2022-08-01T03:07:12.467Z,20.80
2022-08-01T03:09:42.369Z,20.60
2022-08-01T03:12:15.031Z,20.60
2022-08-01T03:14:45.122Z,20.50
2022-08-01T03:17:20.357Z,20.80
2022-08-01T03:19:50.816Z,20.40
2022-08-01T03:22:20.706Z,20.40
2022-08-01T03:24:52.089Z,20.40
2022-08-01T03:27:22.705Z,20.40
2022-08-01T03:29:52.093Z,20.10
2022-08-01T03:32:25.861Z,20.30
2022-08-01T03:34:54.131Z,20.30
2022-08-01T03:37:26.558Z,19.90
2022-08-01T03:40:07.300Z,20.50
2022-08-01T03:42:39.468Z,20.20
2022-08-01T03:45:13.410Z,20.60
2022-08-01T03:47:46.272Z,20.20
2022-08-01T03:50:16.186Z,20.20
2022-08-01T03:52:47.188Z,20.10
2022-08-01T03:55:18.288Z,20.40
2022-08-01T03:57:48.483Z,20.10
2022-08-01T04:00:19.311Z,19.80
2022-08-01T04:02:53.400Z,20.10
2022-08-01T04:05:21.582Z,20.10
2022-08-01T04:07:56.544Z,20.20
2022-08-01T04:10:25.263Z,20.10
2022-08-01T04:12:53.958Z,20.20
2022-08-01T04:15:22.520Z,20.20
2022-08-01T04:17:51.897Z,20.20
2022-08-01T04:20:19.959Z,20.20
2022-08-01T04:22:48.803Z,20.20
2022-08-01T04:25:26.435Z,20.20
2022-08-01T04:27:55.261Z,20.20
2022-08-01T04:30:28.099Z,20.20
2022-08-01T04:33:01.320Z,20.20
2022-08-01T04:36:03.672Z,20.20
2022-08-01T04:38:24.152Z,20.20
2022-08-01T04:40:56.651Z,20.20
2022-08-01T04:43:25.082Z,20.20
2022-08-01T04:45:54.108Z,20.20
2022-08-01T04:48:25.345Z,20.20
2022-08-01T04:50:53.322Z,20.30
2022-08-01T04:53:23.710Z,20.30
2022-08-01T04:55:52.170Z,20.30
2022-08-01T04:58:20.545Z,20.30
2022-08-01T05:00:49.302Z,20.20
2022-08-01T05:03:18.136Z,20.30
2022-08-01T05:05:47.684Z,20.20
2022-08-01T05:08:17.370Z,20.20
2022-08-01T05:10:45.907Z,20.30
2022-08-01T05:13:14.229Z,20.20
2022-08-01T05:15:42.640Z,20.00
2022-08-01T05:18:11.064Z,20.20
2022-08-01T05:20:40.391Z,20.20
2022-08-01T05:23:11.103Z,20.20
2022-08-01T05:25:58.995Z,20.20
2022-08-01T05:28:27.163Z,19.80
2022-08-01T05:30:55.954Z,20.20
2022-08-01T05:33:24.660Z,20.20
2022-08-01T05:35:52.661Z,20.20
2022-08-01T05:38:22.272Z,20.20
2022-08-01T05:40:50.427Z,20.30
2022-08-01T05:43:29.269Z,20.50
2022-08-01T05:45:57.838Z,20.60
2022-08-01T05:48:25.819Z,20.70
2022-08-01T05:50:58.198Z,20.90
2022-08-01T05:53:27.996Z,21.00
2022-08-01T05:55:56.031Z,21.20
2022-08-01T05:58:24.260Z,21.30
2022-08-01T06:00:52.921Z,21.50
2022-08-01T06:03:21.309Z,21.70
2022-08-01T06:05:49.269Z,22.00
2022-08-01T06:08:17.817Z,22.20
2022-08-01T06:10:47.313Z,22.40
2022-08-01T06:13:15.335Z,22.50
2022-08-01T06:15:43.641Z,22.70
2022-08-01T06:18:15.086Z,22.80
2022-08-01T06:20:43.425Z,22.80
2022-08-01T06:23:31.466Z,22.90
2022-08-01T06:26:11.492Z,22.80
2022-08-01T06:28:43.503Z,23.00
2022-08-01T06:31:17.713Z,23.10
2022-08-01T06:33:45.992Z,23.30
2022-08-01T06:36:14.447Z,23.30
2022-08-01T06:38:44.935Z,23.40
2022-08-01T06:41:14.260Z,23.50
2022-08-01T06:43:42.196Z,23.40
2022-08-01T06:46:10.206Z,23.40
2022-08-01T06:48:40.261Z,23.50
2022-08-01T06:51:14.376Z,23.60
2022-08-01T06:53:42.413Z,23.80
2022-08-01T06:56:12.278Z,24.00
2022-08-01T06:58:41.704Z,24.10
2022-08-01T07:01:09.988Z,24.00
2022-08-01T07:03:52.843Z,24.00
2022-08-01T07:06:22.299Z,23.90
2022-08-01T07:08:50.323Z,24.20
2022-08-01T07:11:18.459Z,24.30
2022-08-01T07:13:49.259Z,24.50
2022-08-01T07:16:18.523Z,24.60
2022-08-01T07:18:47.142Z,24.60
2022-08-01T07:21:25.502Z,24.70
2022-08-01T07:24:12.641Z,24.70
2022-08-01T07:26:53.676Z,24.70
2022-08-01T07:29:24.673Z,24.30
2022-08-01T07:31:53.960Z,24.60
2022-08-01T07:34:22.192Z,24.60
2022-08-01T07:36:52.010Z,24.60
2022-08-01T07:39:20.956Z,24.60
2022-08-01T07:42:05.973Z,24.70
2022-08-01T07:44:38.532Z,24.70
2022-08-01T07:47:07.763Z,24.40
2022-08-01T07:49:39.984Z,24.70
2022-08-01T07:52:09.775Z,24.80
2022-08-01T07:54:39.431Z,24.90
2022-08-01T07:59:38.062Z,25.00
2022-08-01T08:02:06.376Z,25.20
2022-08-01T08:04:34.784Z,25.20
2022-08-01T08:07:02.912Z,25.00
2022-08-01T08:09:30.969Z,25.10
2022-08-01T08:12:07.568Z,25.30
2022-08-01T08:14:37.306Z,25.30
2022-08-01T08:17:05.460Z,25.30
2022-08-01T08:19:37.948Z,25.20
2022-08-01T08:22:07.344Z,25.10
2022-08-01T08:24:35.550Z,24.80
2022-08-01T08:27:03.989Z,24.70
2022-08-01T08:29:34.404Z,24.80
2022-08-01T08:32:04.000Z,25.20
2022-08-01T08:34:32.468Z,24.90
2022-08-01T08:37:00.801Z,25.00
2022-08-01T08:39:30.474Z,25.20
2022-08-01T08:42:01.149Z,25.50
2022-08-01T08:44:29.248Z,25.50
2022-08-01T08:46:58.957Z,25.60
2022-08-01T08:49:35.582Z,26.00
2022-08-01T08:52:08.870Z,26.10
2022-08-01T08:54:39.066Z,26.20
2022-08-01T08:57:09.132Z,27.00
2022-08-01T08:59:37.389Z,26.60
2022-08-01T09:02:08.251Z,26.70
2022-08-01T09:04:38.419Z,26.90
2022-08-01T09:07:07.131Z,26.70
2022-08-01T09:09:35.117Z,26.70
2022-08-01T09:12:09.436Z,26.50
2022-08-01T09:14:46.924Z,26.90
2022-08-01T09:17:15.202Z,27.20
2022-08-01T09:19:46.146Z,26.80
2022-08-01T09:22:18.929Z,26.90
2022-08-01T09:25:01.250Z,27.10
2022-08-01T09:27:29.632Z,27.10
2022-08-01T09:30:11.551Z,27.20
2022-08-01T09:32:56.462Z,27.10
2022-08-01T09:35:31.068Z,27.40
2022-08-01T09:38:19.764Z,27.40
2022-08-01T09:40:53.106Z,27.20
2022-08-01T09:43:22.955Z,27.30
2022-08-01T09:45:52.918Z,27.30
2022-08-01T09:48:22.460Z,27.60
2022-08-01T09:51:03.815Z,27.60
2022-08-01T09:53:51.226Z,27.60
2022-08-01T09:56:22.732Z,27.60
2022-08-01T09:59:00.586Z,27.80
2022-08-01T10:01:36.525Z,27.60
2022-08-01T10:04:11.895Z,27.80
2022-08-01T10:06:43.635Z,27.80
2022-08-01T10:09:12.098Z,27.80
2022-08-01T10:11:43.527Z,28.10
2022-08-01T10:14:17.841Z,28.20
2022-08-01T10:16:52.847Z,28.20
2022-08-01T10:19:24.475Z,28.30
2022-08-01T10:21:57.717Z,28.60
2022-08-01T10:24:28.524Z,28.70
2022-08-01T10:27:09.375Z,28.70
2022-08-01T10:29:45.924Z,28.60
2022-08-01T10:32:23.897Z,28.80
2022-08-01T10:35:06.724Z,28.30
2022-08-01T10:37:52.045Z,28.70
2022-08-01T10:40:31.476Z,28.70
2022-08-01T10:43:00.349Z,28.60
2022-08-01T10:45:30.529Z,28.80
2022-08-01T10:48:02.214Z,28.20
2022-08-01T10:50:36.605Z,28.90
2022-08-01T10:53:23.392Z,28.80
2022-08-01T10:56:03.236Z,27.80
2022-08-01T10:58:39.798Z,29.50
2022-08-01T11:01:25.742Z,29.80
2022-08-01T11:04:23.069Z,30.10
2022-08-01T11:07:07.246Z,30.10
2022-08-01T11:09:51.826Z,29.50
2022-08-01T11:12:23.554Z,29.40
2022-08-01T11:15:29.401Z,29.70
2022-08-01T11:18:06.554Z,29.50
2022-08-01T11:20:42.478Z,30.20
2022-08-01T11:23:23.588Z,29.60
2022-08-01T11:26:17.415Z,29.80
2022-08-01T11:29:10.926Z,29.70
2022-08-01T11:31:38.171Z,29.80
2022-08-01T11:34:07.996Z,29.60
2022-08-01T11:36:58.019Z,29.40
2022-08-01T11:39:25.287Z,29.90
2022-08-01T11:41:55.932Z,30.00
2022-08-01T11:44:30.425Z,30.60
2022-08-01T11:47:10.430Z,30.50
2022-08-01T11:49:59.275Z,30.50
2022-08-01T11:52:32.837Z,30.50
2022-08-01T11:55:18.187Z,30.70
2022-08-01T11:57:56.715Z,30.30
2022-08-01T12:03:04.820Z,31.00
2022-08-01T12:05:43.348Z,31.10
2022-08-01T12:08:17.100Z,31.30
2022-08-01T12:11:02.292Z,31.00
2022-08-01T12:13:42.530Z,31.30
2022-08-01T12:16:12.320Z,31.30
2022-08-01T12:18:41.579Z,31.40
2022-08-01T12:21:10.102Z,31.40
2022-08-01T12:23:44.263Z,31.30
2022-08-01T12:26:29.449Z,31.20
2022-08-01T12:29:02.485Z,31.50
2022-08-01T12:31:34.593Z,31.40
2022-08-01T12:34:34.580Z,31.80
2022-08-01T12:37:06.843Z,31.90
2022-08-01T12:39:40.124Z,32.20
2022-08-01T12:42:17.424Z,32.10
2022-08-01T12:44:50.089Z,31.70
2022-08-01T12:47:18.580Z,31.60
2022-08-01T12:49:47.478Z,31.40
2022-08-01T12:52:18.239Z,31.00
2022-08-01T12:55:09.545Z,30.90
2022-08-01T12:57:40.441Z,30.90
2022-08-01T13:00:23.388Z,30.90
2022-08-01T13:03:05.773Z,31.00
2022-08-01T13:05:46.966Z,30.80
2022-08-01T13:08:16.537Z,31.10
2022-08-01T13:10:45.527Z,30.90
2022-08-01T13:13:27.828Z,31.00
2022-08-01T13:16:08.609Z,31.30
2022-08-01T13:18:41.076Z,31.70
2022-08-01T13:21:11.434Z,30.90
2022-08-01T13:24:02.956Z,31.50
2022-08-01T13:26:40.756Z,31.50
2022-08-01T13:29:09.742Z,31.60
2022-08-01T13:31:40.994Z,31.60
2022-08-01T13:34:09.669Z,31.80
2022-08-01T13:36:38.378Z,32.00
2022-08-01T13:39:36.077Z,32.20
2022-08-01T13:42:04.594Z,32.40
2022-08-01T13:44:33.179Z,32.30
2022-08-01T13:47:15.797Z,32.10
2022-08-01T13:49:44.164Z,31.40
2022-08-01T13:52:12.237Z,31.30
2022-08-01T13:54:40.221Z,31.40
2022-08-01T13:57:08.401Z,31.50
2022-08-01T13:59:36.436Z,31.60
2022-08-01T14:02:06.130Z,31.50
2022-08-01T14:04:34.253Z,31.40
2022-08-01T14:07:09.649Z,31.40
2022-08-01T14:10:04.337Z,31.30
2022-08-01T14:12:27.960Z,31.30
2022-08-01T14:14:55.930Z,31.20
2022-08-01T14:17:25.355Z,30.70
2022-08-01T14:19:57.473Z,30.90
2022-08-01T14:22:25.426Z,31.20
2022-08-01T14:24:54.595Z,31.20
2022-08-01T14:27:27.691Z,30.90
2022-08-01T14:30:03.653Z,31.00
2022-08-01T14:32:34.320Z,31.00
2022-08-01T14:35:02.750Z,31.20
2022-08-01T14:37:34.721Z,31.00
2022-08-01T14:40:09.956Z,31.60
2022-08-01T14:42:38.358Z,32.10
2022-08-01T14:45:09.708Z,32.40
2022-08-01T14:47:39.658Z,32.20
2022-08-01T14:50:10.149Z,31.90
2022-08-01T14:52:38.843Z,31.30
2022-08-01T14:55:08.758Z,31.00
2022-08-01T14:57:38.044Z,30.90
2022-08-01T15:00:08.432Z,30.80
2022-08-01T15:02:36.448Z,30.70
2022-08-01T15:05:06.573Z,30.30
2022-08-01T15:07:37.028Z,30.60
2022-08-01T15:10:10.294Z,30.40
2022-08-01T15:12:49.822Z,30.30
2022-08-01T15:15:18.453Z,29.90
2022-08-01T15:17:46.885Z,30.20
2022-08-01T15:20:16.413Z,30.40
2022-08-01T15:22:44.336Z,30.20
2022-08-01T15:25:12.525Z,29.90
2022-08-01T15:27:40.648Z,29.80
2022-08-01T15:30:09.773Z,29.70
2022-08-01T15:32:38.261Z,29.60
2022-08-01T15:35:07.422Z,29.60
2022-08-01T15:37:42.264Z,29.60
2022-08-01T15:40:12.310Z,29.20
2022-08-01T15:42:40.323Z,29.10
2022-08-01T15:45:20.789Z,29.20
2022-08-01T15:47:58.354Z,29.60
2022-08-01T15:50:26.339Z,29.40
2022-08-01T15:52:55.768Z,29.40
2022-08-01T15:55:23.727Z,29.20
2022-08-01T15:57:51.824Z,29.00
2022-08-01T16:00:19.982Z,29.00
2022-08-01T16:02:48.417Z,28.70
2022-08-01T16:05:20.195Z,28.80
2022-08-01T16:07:56.962Z,28.60
2022-08-01T16:10:31.637Z,28.30
2022-08-01T16:13:00.278Z,28.40
2022-08-01T16:15:37.957Z,28.50
2022-08-01T16:18:13.059Z,28.30
2022-08-01T16:20:45.581Z,28.20
2022-08-01T16:23:14.858Z,28.10
2022-08-01T16:25:45.175Z,28.20
2022-08-01T16:28:14.421Z,28.10
2022-08-01T16:30:51.809Z,28.00
2022-08-01T16:36:26.782Z,27.70
2022-08-01T16:38:58.301Z,27.90
2022-08-01T16:41:29.975Z,27.80
2022-08-01T16:46:27.041Z,27.70
2022-08-01T16:48:55.499Z,27.70
2022-08-01T16:51:24.664Z,27.80
2022-08-01T16:53:52.988Z,27.70
2022-08-01T16:56:21.435Z,27.70
2022-08-01T16:58:54.330Z,27.60
2022-08-01T17:01:58.864Z,27.50
2022-08-01T17:04:13.111Z,27.60
2022-08-01T17:06:41.305Z,27.60
2022-08-01T17:09:09.645Z,27.50
2022-08-01T17:11:37.953Z,27.50
2022-08-01T17:14:07.387Z,27.40
2022-08-01T17:16:35.874Z,27.30
2022-08-01T17:19:04.928Z,27.20
2022-08-01T17:21:33.688Z,27.20
2022-08-01T17:24:01.856Z,27.20
2022-08-01T17:26:31.098Z,27.30
2022-08-01T17:29:02.642Z,27.20
2022-08-01T17:31:32.632Z,27.10
2022-08-01T17:34:01.242Z,27.00
2022-08-01T17:36:29.234Z,27.00
2022-08-01T17:38:59.808Z,27.00
2022-08-01T17:41:28.128Z,27.10
2022-08-01T17:43:56.252Z,27.10
2022-08-01T17:46:24.569Z,27.00
2022-08-01T17:48:54.016Z,27.00
2022-08-01T17:51:23.027Z,26.90
2022-08-01T17:53:55.577Z,26.70
2022-08-01T17:56:26.122Z,26.70
2022-08-01T17:58:57.926Z,26.80
2022-08-01T18:01:27.417Z,26.70
2022-08-01T18:03:58.499Z,26.80
2022-08-01T18:06:29.841Z,26.90
2022-08-01T18:08:59.740Z,26.90
2022-08-01T18:11:37.527Z,26.70
2022-08-01T18:14:06.108Z,26.70
2022-08-01T18:16:34.134Z,26.70
2022-08-01T18:19:04.135Z,26.60
2022-08-01T18:21:33.629Z,26.50
2022-08-01T18:24:01.920Z,26.40
2022-08-01T18:26:30.002Z,26.50
2022-08-01T18:28:58.060Z,26.50
2022-08-01T18:31:26.048Z,26.40
2022-08-01T18:33:54.064Z,26.30
2022-08-01T18:36:32.878Z,26.10
2022-08-01T18:39:04.665Z,26.10
2022-08-01T18:41:33.793Z,26.00
2022-08-01T18:44:05.810Z,25.90
2022-08-01T18:46:36.948Z,25.90
2022-08-01T18:49:05.770Z,25.80
2022-08-01T18:51:44.374Z,25.80
2022-08-01T18:54:13.975Z,25.70
2022-08-01T18:56:43.165Z,25.70
2022-08-01T18:59:11.386Z,25.50
2022-08-01T19:01:42.919Z,25.50
2022-08-01T19:04:16.659Z,25.40
2022-08-01T19:06:47.741Z,25.30
2022-08-01T19:09:20.667Z,25.20
2022-08-01T19:11:49.347Z,25.10
2022-08-01T19:14:17.667Z,25.10
2022-08-01T19:16:46.095Z,25.00
2022-08-01T19:19:14.526Z,24.90
2022-08-01T19:21:57.506Z,24.80
2022-08-01T19:24:26.658Z,24.40
2022-08-01T19:26:57.066Z,24.60
2022-08-01T19:29:32.993Z,24.60
2022-08-01T19:32:05.523Z,24.50
2022-08-01T19:34:36.953Z,24.50
2022-08-01T19:37:08.239Z,24.40
2022-08-01T19:39:36.504Z,24.40
2022-08-01T19:42:06.014Z,24.30
2022-08-01T19:44:34.537Z,24.30
2022-08-01T19:47:04.101Z,24.30
2022-08-01T19:49:32.654Z,24.20
2022-08-01T19:52:03.115Z,24.10
2022-08-01T19:54:35.638Z,24.10
2022-08-01T19:57:05.914Z,24.00
2022-08-01T19:59:35.889Z,24.00
2022-08-01T20:02:04.468Z,23.90
2022-08-01T20:04:33.656Z,23.90
2022-08-01T20:07:03.004Z,23.80
2022-08-01T20:09:34.276Z,23.80
2022-08-01T20:12:02.490Z,23.80
2022-08-01T20:14:30.569Z,23.70
2022-08-01T20:16:59.200Z,23.70
2022-08-01T20:19:29.361Z,23.60
2022-08-01T20:22:02.772Z,23.60
2022-08-01T20:24:39.653Z,23.60
2022-08-01T20:27:11.346Z,23.50
2022-08-01T20:29:40.948Z,23.50
2022-08-01T20:32:09.682Z,23.50
2022-08-01T20:34:40.105Z,23.40
2022-08-01T20:37:12.807Z,23.40
2022-08-01T20:39:45.005Z,23.40
2022-08-01T20:42:14.104Z,23.30
2022-08-01T20:44:43.245Z,23.30
2022-08-01T20:47:11.922Z,23.20
2022-08-01T20:49:43.247Z,23.20
2022-08-01T20:52:12.643Z,23.10
2022-08-01T20:54:43.438Z,23.00
2022-08-01T20:57:20.333Z,23.00
2022-08-01T20:59:55.549Z,22.90
2022-08-01T21:02:32.286Z,22.90
2022-08-01T21:05:06.385Z,22.80
2022-08-01T21:07:39.657Z,23.00
2022-08-01T21:10:10.947Z,22.80
2022-08-01T21:12:46.281Z,22.80
2022-08-01T21:15:16.968Z,22.80
2022-08-01T21:17:47.577Z,22.80
2022-08-01T21:20:17.484Z,22.80
2022-08-01T21:22:55.445Z,22.90
2022-08-01T21:25:29.545Z,22.90
2022-08-01T21:27:57.515Z,22.80
2022-08-01T21:30:26.397Z,22.80
2022-08-01T21:32:55.120Z,22.80
2022-08-01T21:35:25.885Z,22.80
2022-08-01T21:37:54.209Z,22.80
2022-08-01T21:40:23.511Z,22.80
2022-08-01T21:42:54.927Z,22.80
2022-08-01T21:45:25.746Z,22.70
2022-08-01T21:47:55.084Z,22.70
2022-08-01T21:50:24.055Z,22.70
2022-08-01T21:53:04.950Z,22.60
2022-08-01T21:55:38.564Z,22.60
2022-08-01T21:58:32.094Z,22.50
2022-08-01T22:01:06.540Z,22.50
2022-08-01T22:03:41.872Z,22.40
2022-08-01T22:06:12.471Z,22.40
2022-08-01T22:08:45.843Z,22.40
2022-08-01T22:11:19.375Z,22.40
2022-08-01T22:13:50.781Z,22.30
2022-08-01T22:16:18.791Z,22.30
2022-08-01T22:18:47.369Z,22.20
2022-08-01T22:21:15.814Z,22.10
2022-08-01T22:23:44.497Z,22.10
2022-08-01T22:26:13.089Z,22.10
2022-08-01T22:28:41.630Z,22.00
2022-08-01T22:31:10.980Z,22.00
2022-08-01T22:33:40.050Z,22.00
2022-08-01T22:36:08.395Z,21.90
2022-08-01T22:38:36.501Z,21.90
2022-08-01T22:41:06.055Z,21.90
2022-08-01T22:43:41.192Z,21.80
2022-08-01T22:46:21.244Z,21.80
2022-08-01T22:48:52.900Z,21.70
2022-08-01T22:51:33.032Z,21.70
2022-08-01T22:54:05.781Z,21.70
2022-08-01T22:56:38.286Z,21.60
2022-08-01T22:59:10.644Z,21.50
2022-08-01T23:01:47.813Z,21.50
2022-08-01T23:04:33.046Z,21.40
2022-08-01T23:07:05.387Z,21.40
2022-08-01T23:09:54.446Z,21.40
2022-08-01T23:12:25.033Z,21.30
2022-08-01T23:14:55.591Z,21.40
2022-08-01T23:17:27.711Z,21.70
2022-08-01T23:19:58.556Z,21.40
2022-08-01T23:22:31.382Z,21.40
2022-08-01T23:25:04.600Z,21.40
2022-08-01T23:27:54.359Z,21.70
2022-08-01T23:30:26.728Z,21.30
2022-08-01T23:32:56.560Z,21.20
2022-08-01T23:35:24.864Z,21.20
2022-08-01T23:37:55.884Z,21.20
2022-08-01T23:40:29.879Z,21.10
2022-08-01T23:42:57.869Z,21.10
2022-08-01T23:45:25.818Z,21.00
2022-08-01T23:47:55.304Z,21.00
2022-08-01T23:50:24.188Z,20.90
2022-08-01T23:52:55.624Z,20.90
2022-08-01T23:55:30.653Z,20.80
2022-08-01T23:58:07.047Z,20.80
